createdAt,value
2018-09-26T00:00:04.554Z,6.27
2018-09-26T00:02:36.380Z,3.13
2018-09-26T00:05:07.187Z,2.63
2018-09-26T00:07:36.548Z,5.13
2018-09-26T00:10:06.120Z,2.70
2018-09-26T00:12:35.737Z,5.30
2018-09-26T00:15:05.137Z,3.33
2018-09-26T00:17:34.356Z,2.93
2018-09-26T00:20:03.781Z,2.47
2018-09-26T00:22:33.173Z,4.47
2018-09-26T00:25:02.756Z,3.83
2018-09-26T00:27:32.020Z,1.80
2018-09-26T00:30:01.793Z,4.53
2018-09-26T00:32:31.698Z,4.97
2018-09-26T00:35:00.936Z,3.40
2018-09-26T00:37:30.053Z,3.07
2018-09-26T00:39:59.544Z,3.20
2018-09-26T00:42:29.182Z,7.07
2018-09-26T00:44:58.410Z,3.77
2018-09-26T00:47:28.066Z,3.10
2018-09-26T00:49:57.218Z,5.70
2018-09-26T00:52:26.397Z,4.20
2018-09-26T00:54:55.820Z,3.13
2018-09-26T00:57:25.007Z,4.13
2018-09-26T00:59:54.501Z,5.37
2018-09-26T01:02:23.873Z,3.57
2018-09-26T01:04:53.937Z,3.77
2018-09-26T01:07:23.559Z,3.13
2018-09-26T01:09:55.525Z,4.80
2018-09-26T01:12:24.630Z,3.47
2018-09-26T01:14:53.737Z,5.53
2018-09-26T01:17:22.788Z,1.63
2018-09-26T01:19:52.424Z,2.47
2018-09-26T01:22:21.480Z,2.40
2018-09-26T01:24:50.953Z,3.03
2018-09-26T01:27:20.229Z,3.47
2018-09-26T01:29:49.477Z,4.50
2018-09-26T01:32:18.990Z,2.83
2018-09-26T01:34:48.495Z,2.47
2018-09-26T01:37:17.675Z,2.93
2018-09-26T01:39:46.768Z,4.77
2018-09-26T01:42:15.904Z,2.40
2018-09-26T01:44:45.118Z,2.60
2018-09-26T01:47:14.283Z,4.63
2018-09-26T01:49:43.357Z,3.23
2018-09-26T01:52:12.748Z,7.40
2018-09-26T01:54:41.956Z,5.37
2018-09-26T01:57:11.186Z,4.30
2018-09-26T01:59:40.759Z,6.30
2018-09-26T02:02:09.912Z,4.57
2018-09-26T02:04:39.214Z,3.40
2018-09-26T02:07:08.463Z,4.53
2018-09-26T02:09:37.676Z,4.00
2018-09-26T02:12:07.013Z,2.60
2018-09-26T02:14:36.182Z,3.83
2018-09-26T02:17:06.117Z,4.10
2018-09-26T02:19:35.232Z,4.30
2018-09-26T02:22:04.345Z,2.23
2018-09-26T02:24:34.309Z,4.57
2018-09-26T02:27:03.797Z,3.90
2018-09-26T02:29:33.113Z,7.10
2018-09-26T02:32:02.358Z,4.43
2018-09-26T02:34:31.540Z,6.57
2018-09-26T02:37:00.903Z,9.97
2018-09-26T02:39:30.887Z,11.30
2018-09-26T02:42:00.320Z,6.47
2018-09-26T02:44:29.469Z,8.40
2018-09-26T02:46:58.668Z,5.33
2018-09-26T02:49:28.676Z,2.50
2018-09-26T02:51:57.773Z,2.57
2018-09-26T02:54:27.188Z,1.87
2018-09-26T02:56:57.225Z,3.07
2018-09-26T02:59:26.427Z,2.60
2018-09-26T03:01:55.985Z,2.93
2018-09-26T03:04:25.290Z,4.50
2018-09-26T03:06:54.861Z,2.73
2018-09-26T03:09:24.053Z,3.63
2018-09-26T03:11:53.300Z,2.63
2018-09-26T03:14:22.765Z,3.00
2018-09-26T03:16:52.318Z,3.63
2018-09-26T03:19:21.490Z,2.50
2018-09-26T03:21:50.646Z,2.03
2018-09-26T03:24:20.216Z,5.03
2018-09-26T03:26:49.620Z,2.20
2018-09-26T03:29:18.901Z,3.50
2018-09-26T03:31:47.973Z,6.37
2018-09-26T03:34:17.199Z,4.03
2018-09-26T03:36:46.441Z,2.50
2018-09-26T03:39:15.533Z,4.60
2018-09-26T03:41:45.066Z,3.13
2018-09-26T03:44:14.302Z,3.63
2018-09-26T03:46:43.440Z,1.80
2018-09-26T03:49:13.855Z,2.63
2018-09-26T03:51:43.183Z,2.73
2018-09-26T03:54:12.402Z,3.13
2018-09-26T03:56:41.568Z,4.83
2018-09-26T03:59:10.731Z,9.63
2018-09-26T04:01:40.931Z,3.90
2018-09-26T04:04:10.407Z,3.60
2018-09-26T04:06:39.902Z,3.00
2018-09-26T04:09:09.676Z,4.70
2018-09-26T04:11:38.880Z,2.83
2018-09-26T04:14:09.153Z,7.50
2018-09-26T04:16:38.777Z,3.77
2018-09-26T04:19:09.003Z,6.77
2018-09-26T04:21:46.671Z,2.90
2018-09-26T04:24:29.462Z,6.07
2018-09-26T04:26:59.074Z,2.63
2018-09-26T04:29:28.351Z,4.37
2018-09-26T04:31:57.973Z,3.97
2018-09-26T04:34:27.315Z,3.60
2018-09-26T04:36:56.523Z,3.07
2018-09-26T04:39:26.169Z,6.00
2018-09-26T04:42:01.267Z,5.73
2018-09-26T04:44:30.568Z,5.13
2018-09-26T04:47:00.600Z,3.67
2018-09-26T04:49:31.488Z,3.83
2018-09-26T04:52:00.638Z,4.73
2018-09-26T04:54:31.371Z,7.83
2018-09-26T04:57:04.236Z,5.37
2018-09-26T04:59:34.801Z,8.37
2018-09-26T05:02:14.728Z,6.30
2018-09-26T05:04:56.195Z,4.73
2018-09-26T05:07:38.503Z,7.23
2018-09-26T05:10:21.878Z,5.97
2018-09-26T05:12:55.894Z,5.20
2018-09-26T05:15:25.803Z,6.43
2018-09-26T05:17:55.883Z,5.60
2018-09-26T05:20:26.488Z,5.47
2018-09-26T05:23:01.849Z,3.60
2018-09-26T05:25:31.718Z,4.70
2018-09-26T05:28:01.459Z,4.40
2018-09-26T05:30:37.055Z,4.03
2018-09-26T05:33:06.542Z,3.70
2018-09-26T05:35:36.566Z,3.57
2018-09-26T05:38:06.717Z,4.37
2018-09-26T05:40:36.718Z,5.23
2018-09-26T05:43:06.067Z,5.93
2018-09-26T05:45:37.210Z,6.60
2018-09-26T05:48:08.173Z,7.80
2018-09-26T05:50:40.247Z,6.75
2018-09-26T05:53:10.604Z,7.53
2018-09-26T05:55:41.262Z,6.63
2018-09-26T05:58:12.180Z,8.07
2018-09-26T06:00:41.894Z,6.50
2018-09-26T06:03:23.598Z,6.08
2018-09-26T06:05:53.804Z,4.90
2018-09-26T06:08:24.149Z,5.07
2018-09-26T06:10:53.830Z,3.93
2018-09-26T06:13:23.562Z,3.73
2018-09-26T06:15:55.699Z,5.10
2018-09-26T06:18:25.319Z,4.87
2018-09-26T06:20:55.945Z,3.53
2018-09-26T06:23:25.330Z,4.60
2018-09-26T06:25:55.050Z,5.10
2018-09-26T06:28:24.480Z,6.12
2018-09-26T06:30:53.806Z,3.47
2018-09-26T06:33:23.742Z,6.97
2018-09-26T06:35:53.529Z,5.93
2018-09-26T06:38:23.772Z,5.03
2018-09-26T06:40:54.533Z,4.83
2018-09-26T06:43:26.928Z,5.90
2018-09-26T06:45:58.382Z,3.47
2018-09-26T06:48:28.092Z,4.60
2018-09-26T06:50:58.238Z,4.87
2018-09-26T06:53:27.726Z,6.47
2018-09-26T06:55:57.315Z,4.03
2018-09-26T06:58:27.027Z,6.23
2018-09-26T07:00:56.714Z,3.50
2018-09-26T07:03:27.640Z,3.87
2018-09-26T07:05:57.097Z,4.33
2018-09-26T07:08:26.534Z,4.50
2018-09-26T07:10:57.793Z,5.23
2018-09-26T07:13:27.708Z,7.37
2018-09-26T07:15:58.196Z,3.17
2018-09-26T07:18:28.219Z,5.43
2018-09-26T07:20:58.722Z,9.50
2018-09-26T07:23:28.662Z,5.33
2018-09-26T07:25:59.813Z,6.00
2018-09-26T07:28:30.669Z,6.17
2018-09-26T07:31:09.150Z,9.57
2018-09-26T07:33:54.307Z,7.07
2018-09-26T07:36:34.364Z,9.83
2018-09-26T07:39:11.468Z,10.50
2018-09-26T07:41:50.779Z,7.03
2018-09-26T07:44:20.354Z,4.43
2018-09-26T07:46:53.509Z,3.77
2018-09-26T07:49:25.071Z,5.33
2018-09-26T07:52:02.668Z,7.60
2018-09-26T07:54:36.360Z,4.87
2018-09-26T07:57:12.932Z,4.57
2018-09-26T07:59:45.034Z,7.23
2018-09-26T08:02:14.284Z,5.20
2018-09-26T08:04:45.753Z,8.17
2018-09-26T08:07:18.771Z,4.10
2018-09-26T08:09:51.100Z,4.87
2018-09-26T08:12:21.028Z,5.87
2018-09-26T08:14:51.064Z,5.33
2018-09-26T08:17:23.772Z,6.93
2018-09-26T08:19:53.924Z,4.17
2018-09-26T08:22:23.270Z,3.53
2018-09-26T08:24:52.882Z,2.80
2018-09-26T08:27:25.438Z,4.07
2018-09-26T08:29:55.313Z,3.37
2018-09-26T08:32:25.028Z,4.23
2018-09-26T08:34:54.278Z,5.00
2018-09-26T08:37:23.663Z,2.93
2018-09-26T08:39:53.375Z,5.60
2018-09-26T08:42:22.696Z,2.07
2018-09-26T08:44:52.190Z,3.53
2018-09-26T08:47:21.646Z,5.03
2018-09-26T08:49:51.048Z,2.47
2018-09-26T08:52:23.166Z,1.83
2018-09-26T08:54:57.541Z,4.50
2018-09-26T08:57:27.417Z,2.67
2018-09-26T08:59:58.719Z,4.40
2018-09-26T09:02:31.266Z,3.43
2018-09-26T09:05:00.460Z,1.50
2018-09-26T09:07:32.625Z,4.23
2018-09-26T09:10:03.470Z,3.40
2018-09-26T09:12:35.416Z,1.97
2018-09-26T09:15:07.105Z,4.47
2018-09-26T09:17:36.368Z,3.67
2018-09-26T09:20:06.885Z,3.13
2018-09-26T09:22:36.774Z,3.30
2018-09-26T09:25:07.821Z,1.47
2018-09-26T09:27:37.774Z,3.17
2018-09-26T09:30:10.220Z,4.73
2018-09-26T09:32:42.188Z,3.23
2018-09-26T09:35:12.021Z,5.43
2018-09-26T09:37:45.078Z,2.80
2018-09-26T09:40:15.260Z,3.57
2018-09-26T09:42:46.160Z,3.17
2018-09-26T09:45:16.366Z,1.00
2018-09-26T09:47:46.267Z,2.00
2018-09-26T09:50:17.233Z,3.63
2018-09-26T09:52:49.590Z,2.27
2018-09-26T09:55:20.020Z,2.80
2018-09-26T09:57:50.741Z,3.33
2018-09-26T10:00:20.209Z,1.80
2018-09-26T10:02:55.889Z,1.73
2018-09-26T10:05:27.776Z,2.20
2018-09-26T10:08:05.845Z,3.03
2018-09-26T10:10:38.880Z,2.67
2018-09-26T10:13:09.224Z,2.40
2018-09-26T10:15:40.469Z,1.17
2018-09-26T10:18:11.961Z,4.20
2018-09-26T10:20:41.242Z,1.80
2018-09-26T10:23:12.045Z,2.83
2018-09-26T10:25:41.672Z,1.33
2018-09-26T10:28:14.621Z,2.63
2018-09-26T10:30:46.759Z,1.33
2018-09-26T10:33:17.546Z,3.13
2018-09-26T10:35:47.588Z,3.37
2018-09-26T10:38:17.776Z,2.97
2018-09-26T10:40:49.379Z,1.93
2018-09-26T10:43:19.907Z,2.50
2018-09-26T10:45:54.871Z,6.97
2018-09-26T10:48:24.627Z,3.63
2018-09-26T10:50:56.768Z,2.57
2018-09-26T10:53:29.560Z,2.33
2018-09-26T10:56:03.158Z,2.43
2018-09-26T10:58:35.766Z,1.10
2018-09-26T11:01:06.525Z,1.47
2018-09-26T11:03:40.037Z,3.07
2018-09-26T11:06:11.453Z,1.73
2018-09-26T11:08:59.367Z,3.80
2018-09-26T11:11:34.198Z,2.03
2018-09-26T11:14:07.351Z,3.47
2018-09-26T11:16:37.729Z,2.23
2018-09-26T11:19:30.864Z,2.23
2018-09-26T11:22:00.866Z,2.33
2018-09-26T11:24:39.791Z,3.40
2018-09-26T11:27:27.652Z,3.03
2018-09-26T11:30:03.318Z,3.87
2018-09-26T11:32:36.983Z,4.47
2018-09-26T11:35:06.850Z,3.57
2018-09-26T11:37:38.515Z,2.70
2018-09-26T11:40:12.612Z,3.13
2018-09-26T11:42:43.688Z,2.43
2018-09-26T11:45:24.020Z,2.37
2018-09-26T11:47:57.143Z,3.07
2018-09-26T11:55:43.668Z,3.37
2018-09-26T11:58:14.850Z,2.33
2018-09-26T12:00:59.254Z,2.67
2018-09-26T12:03:50.417Z,2.47
2018-09-26T12:06:22.554Z,2.60
2018-09-26T12:08:53.300Z,2.40
2018-09-26T12:11:26.099Z,5.10
2018-09-26T12:13:57.800Z,3.33
2018-09-26T12:16:32.568Z,2.13
2018-09-26T12:19:06.512Z,2.40
2018-09-26T12:21:39.666Z,4.07
2018-09-26T12:24:10.223Z,1.40
2018-09-26T12:26:40.410Z,2.47
2018-09-26T12:29:11.067Z,1.30
2018-09-26T12:31:56.446Z,2.57
2018-09-26T12:34:28.185Z,2.97
2018-09-26T12:36:58.938Z,3.23
2018-09-26T12:39:29.165Z,3.73
2018-09-26T12:42:01.177Z,2.80
2018-09-26T12:44:35.964Z,2.70
2018-09-26T12:47:15.422Z,3.97
2018-09-26T12:49:50.579Z,2.67
2018-09-26T12:52:20.854Z,3.10
2018-09-26T12:54:50.510Z,1.70
2018-09-26T12:57:20.393Z,3.17
2018-09-26T12:59:51.062Z,2.73
2018-09-26T13:02:21.374Z,3.72
2018-09-26T13:04:56.853Z,3.00
2018-09-26T13:07:28.557Z,4.37
2018-09-26T13:09:58.344Z,1.73
2018-09-26T13:12:28.136Z,2.10
2018-09-26T13:15:01.605Z,2.90
2018-09-26T13:17:35.689Z,2.70
2018-09-26T13:20:12.953Z,3.45
2018-09-26T13:22:45.818Z,2.53
2018-09-26T13:25:16.340Z,4.80
2018-09-26T13:27:47.611Z,3.60
2018-09-26T13:30:34.039Z,2.67
2018-09-26T13:33:08.739Z,2.70
2018-09-26T13:35:38.421Z,4.13
2018-09-26T13:38:13.526Z,1.27
2018-09-26T13:40:44.795Z,4.60
2018-09-26T13:43:18.357Z,3.17
2018-09-26T13:45:55.195Z,2.37
2018-09-26T13:48:26.264Z,3.83
2018-09-26T13:51:01.873Z,1.40
2018-09-26T13:53:33.579Z,5.23
2018-09-26T13:56:03.642Z,3.27
2018-09-26T13:58:35.251Z,2.00
2018-09-26T14:01:06.312Z,3.07
2018-09-26T14:03:37.913Z,3.07
2018-09-26T14:06:09.649Z,2.50
2018-09-26T14:08:39.276Z,3.43
2018-09-26T14:11:11.240Z,2.77
2018-09-26T14:13:41.217Z,4.77
2018-09-26T14:16:13.720Z,4.73
2018-09-26T14:18:45.078Z,3.13
2018-09-26T14:21:14.918Z,2.90
2018-09-26T14:23:50.102Z,4.93
2018-09-26T14:26:19.862Z,6.10
2018-09-26T14:28:50.194Z,7.27
2018-09-26T14:31:20.871Z,6.17
2018-09-26T14:33:52.277Z,5.60
2018-09-26T14:36:22.382Z,6.13
2018-09-26T14:38:53.495Z,4.70
2018-09-26T14:41:23.080Z,7.27
2018-09-26T14:44:01.330Z,4.90
2018-09-26T14:46:33.769Z,5.03
2018-09-26T14:49:03.368Z,3.37
2018-09-26T14:51:35.067Z,6.30
2018-09-26T14:54:25.648Z,3.27
2018-09-26T14:57:01.676Z,4.93
2018-09-26T14:59:32.608Z,4.67
2018-09-26T15:02:08.096Z,3.50
2018-09-26T15:04:38.355Z,2.40
2018-09-26T15:07:09.590Z,4.33
2018-09-26T15:09:41.079Z,3.33
2018-09-26T15:12:13.517Z,4.23
2018-09-26T15:14:43.655Z,2.87
2018-09-26T15:17:13.809Z,3.47
2018-09-26T15:19:43.690Z,3.83
2018-09-26T15:22:14.026Z,5.27
2018-09-26T15:24:44.781Z,3.70
2018-09-26T15:27:14.696Z,4.97
2018-09-26T15:29:47.392Z,4.60
2018-09-26T15:32:19.243Z,2.83
2018-09-26T15:34:51.252Z,3.43
2018-09-26T15:37:21.511Z,3.63
2018-09-26T15:39:51.005Z,4.67
2018-09-26T15:42:21.227Z,3.63
2018-09-26T15:44:50.799Z,4.77
2018-09-26T15:47:21.772Z,3.63
2018-09-26T15:49:55.656Z,3.63
2018-09-26T15:52:26.190Z,7.40
2018-09-26T15:55:00.430Z,3.60
2018-09-26T15:57:32.521Z,3.93
2018-09-26T16:00:09.945Z,3.00
2018-09-26T16:02:41.993Z,4.80
2018-09-26T16:05:16.282Z,8.13
2018-09-26T16:07:53.883Z,3.70
2018-09-26T16:10:24.140Z,3.27
2018-09-26T16:12:57.581Z,5.47
2018-09-26T16:15:32.209Z,2.93
2018-09-26T16:18:06.833Z,4.37
2018-09-26T16:20:37.195Z,4.33
2018-09-26T16:23:10.291Z,2.50
2018-09-26T16:25:45.412Z,6.37
2018-09-26T16:28:16.121Z,6.70
2018-09-26T16:30:46.644Z,4.67
2018-09-26T16:33:19.100Z,6.73
2018-09-26T16:35:49.130Z,2.43
2018-09-26T16:38:19.537Z,4.53
2018-09-26T16:40:50.783Z,5.53
2018-09-26T16:43:20.423Z,3.97
2018-09-26T16:45:52.825Z,3.40
2018-09-26T16:48:23.242Z,2.40
2018-09-26T16:50:54.007Z,4.00
2018-09-26T16:53:25.416Z,3.13
2018-09-26T16:55:54.768Z,1.97
2018-09-26T16:58:24.602Z,4.27
2018-09-26T17:00:54.735Z,5.30
2018-09-26T17:03:26.675Z,2.93
2018-09-26T17:05:57.840Z,4.70
2018-09-26T17:08:35.346Z,4.97
2018-09-26T17:11:07.193Z,3.67
2018-09-26T17:13:39.889Z,3.90
2018-09-26T17:16:11.229Z,4.20
2018-09-26T17:18:41.083Z,4.57
2018-09-26T17:21:11.311Z,12.30
2018-09-26T17:23:41.652Z,7.60
2018-09-26T17:26:11.680Z,5.43
2018-09-26T17:28:41.387Z,6.60
2018-09-26T17:31:13.280Z,7.27
2018-09-26T17:33:45.174Z,6.80
2018-09-26T17:36:17.806Z,8.40
2018-09-26T17:38:47.769Z,9.97
2018-09-26T17:41:17.801Z,7.20
2018-09-26T17:43:48.069Z,6.73
2018-09-26T17:46:26.770Z,10.40
2018-09-26T17:48:57.836Z,7.00
2018-09-26T17:51:31.407Z,5.90
2018-09-26T17:54:02.820Z,8.00
2018-09-26T17:56:34.523Z,6.77
2018-09-26T17:59:05.771Z,9.37
2018-09-26T18:01:35.570Z,6.10
2018-09-26T18:06:46.530Z,6.33
2018-09-26T18:09:27.096Z,6.03
2018-09-26T18:12:04.762Z,5.20
2018-09-26T18:14:34.884Z,5.23
2018-09-26T18:17:04.334Z,6.20
2018-09-26T18:19:36.054Z,5.53
2018-09-26T18:22:07.272Z,6.03
2018-09-26T18:24:42.192Z,6.17
2018-09-26T18:27:18.343Z,6.30
2018-09-26T18:29:51.129Z,6.57
2018-09-26T18:32:25.368Z,8.50
2018-09-26T18:34:58.645Z,5.83
2018-09-26T18:37:28.793Z,9.77
2018-09-26T18:40:00.091Z,8.03
2018-09-26T18:42:34.628Z,20.47
2018-09-26T18:45:14.765Z,16.00
2018-09-26T18:47:46.031Z,15.60
2018-09-26T18:50:16.763Z,27.67
2018-09-26T18:52:47.948Z,19.93
2018-09-26T18:55:23.145Z,16.27
2018-09-26T18:58:01.916Z,11.50
2018-09-26T19:00:34.673Z,9.53
2018-09-26T19:03:09.576Z,11.03
2018-09-26T19:05:40.040Z,9.20
2018-09-26T19:08:12.084Z,9.53
2018-09-26T19:10:41.988Z,12.57
2018-09-26T19:13:13.290Z,14.30
2018-09-26T19:15:48.638Z,9.33
2018-09-26T19:18:26.665Z,12.30
2018-09-26T19:21:03.290Z,9.33
2018-09-26T19:23:35.673Z,12.50
2018-09-26T19:26:07.403Z,7.87
2018-09-26T19:28:40.606Z,13.30
2018-09-26T19:31:13.004Z,9.87
2018-09-26T19:33:44.177Z,10.30
2018-09-26T19:36:13.932Z,12.43
2018-09-26T19:38:43.486Z,8.60
2018-09-26T19:41:15.132Z,5.83
2018-09-26T19:43:46.852Z,9.13
2018-09-26T19:46:18.678Z,5.77
2018-09-26T19:48:49.738Z,7.60
2018-09-26T19:51:25.191Z,6.80
2018-09-26T19:53:57.365Z,7.50
2018-09-26T19:56:29.279Z,8.43
2018-09-26T19:59:01.600Z,7.10
2018-09-26T20:06:28.237Z,8.70
2018-09-26T20:08:58.657Z,6.17
2018-09-26T20:11:30.418Z,5.43
2018-09-26T20:14:01.649Z,7.67
2018-09-26T20:16:32.379Z,4.13
2018-09-26T20:19:10.403Z,6.53
2018-09-26T20:21:41.333Z,6.07
2018-09-26T20:24:11.573Z,4.53
2018-09-26T20:26:41.233Z,6.17
2018-09-26T20:29:13.149Z,6.97
2018-09-26T20:31:45.093Z,5.13
2018-09-26T20:34:15.825Z,5.23
2018-09-26T20:37:47.996Z,4.40
2018-09-26T20:40:18.526Z,3.73
2018-09-26T20:42:48.341Z,4.20
2018-09-26T20:45:18.326Z,4.43
2018-09-26T20:47:48.064Z,4.77
2018-09-26T20:50:18.636Z,3.07
2018-09-26T20:52:49.151Z,4.93
2018-09-26T20:55:19.319Z,4.67
2018-09-26T20:57:48.729Z,6.03
2018-09-26T21:00:18.197Z,5.23
2018-09-26T21:02:47.719Z,4.47
2018-09-26T21:05:20.416Z,3.10
2018-09-26T21:07:51.182Z,4.53
2018-09-26T21:10:22.102Z,4.13
2018-09-26T21:12:51.307Z,3.97
2018-09-26T21:15:20.910Z,4.27
2018-09-26T21:17:51.030Z,7.67
2018-09-26T21:20:23.098Z,4.63
2018-09-26T21:22:52.492Z,5.50
2018-09-26T21:25:23.766Z,4.60
2018-09-26T21:27:55.568Z,7.87
2018-09-26T21:30:25.788Z,7.93
2018-09-26T21:32:56.267Z,8.17
2018-09-26T21:35:26.377Z,5.73
2018-09-26T21:37:55.805Z,7.10
2018-09-26T21:40:25.295Z,6.20
2018-09-26T21:42:54.806Z,6.33
2018-09-26T21:45:24.750Z,4.43
2018-09-26T21:47:54.519Z,4.93
2018-09-26T21:50:23.665Z,6.27
2018-09-26T21:52:53.018Z,3.03
2018-09-26T21:55:26.446Z,4.33
2018-09-26T21:57:56.337Z,5.13
2018-09-26T22:00:26.742Z,3.17
2018-09-26T22:02:56.374Z,4.53
2018-09-26T22:05:26.489Z,3.73
2018-09-26T22:07:56.079Z,5.50
2018-09-26T22:10:26.341Z,5.80
2018-09-26T22:12:56.434Z,3.87
2018-09-26T22:15:26.091Z,4.83
2018-09-26T22:17:56.663Z,3.10
2018-09-26T22:20:26.317Z,3.93
2018-09-26T22:22:55.533Z,4.37
2018-09-26T22:25:25.339Z,4.73
2018-09-26T22:27:54.752Z,3.00
2018-09-26T22:30:24.215Z,3.77
2018-09-26T22:32:55.128Z,6.07
2018-09-26T22:35:25.291Z,4.83
2018-09-26T22:37:54.698Z,2.90
2018-09-26T22:40:24.241Z,4.90
2018-09-26T22:42:53.650Z,3.33
2018-09-26T22:45:23.676Z,4.70
2018-09-26T22:47:53.338Z,4.27
2018-09-26T22:50:22.724Z,2.17
2018-09-26T22:52:51.809Z,3.40
2018-09-26T22:55:24.408Z,4.63
2018-09-26T22:57:53.511Z,4.00
2018-09-26T23:00:23.306Z,5.43
2018-09-26T23:02:53.169Z,3.93
2018-09-26T23:05:22.789Z,2.90
2018-09-26T23:07:52.232Z,6.30
2018-09-26T23:10:21.933Z,5.33
2018-09-26T23:12:51.345Z,3.37
2018-09-26T23:15:20.991Z,4.67
2018-09-26T23:17:50.153Z,2.57
2018-09-26T23:20:19.392Z,4.07
2018-09-26T23:22:50.624Z,2.90
2018-09-26T23:25:19.755Z,2.97
2018-09-26T23:27:49.181Z,3.70
2018-09-26T23:30:18.611Z,4.90
2018-09-26T23:32:47.757Z,4.43
2018-09-26T23:35:16.998Z,5.03
2018-09-26T23:37:46.085Z,3.30
2018-09-26T23:40:15.222Z,4.07
2018-09-26T23:42:44.681Z,3.37
2018-09-26T23:45:14.723Z,3.27
2018-09-26T23:47:44.287Z,3.53
2018-09-26T23:50:13.454Z,2.70
2018-09-26T23:52:42.903Z,4.00
2018-09-26T23:55:12.942Z,4.43
2018-09-26T23:57:42.062Z,2.00
